Time;durP1;ratioP1;P1;durP2;ratioP2;P2;SDS_P1;SDS_P2;PMS_P1;PMS_P2;Temp;Humidity;BMP_temperature;BMP_pressure;BME280_temperature;BME280_humidity;BME280_pressure;Samples;Min_cycle;Max_cycle;Signal;HPM_P1;HPM_P2
2021/11/30 00:00:52;;;;;;;7.80;6.60;;;3.20;67.30;;;;;;5033018;28;20885;-87
2021/11/30 00:03:18;;;;;;;8.13;7.30;;;3.10;67.90;;;;;;5032767;28;20597;-88
2021/11/30 00:05:46;;;;;;;7.50;6.80;;;3.10;66.90;;;;;;5034127;28;20173;-88
2021/11/30 00:08:13;;;;;;;7.83;7.10;;;3.10;67.40;;;;;;5032579;28;20477;-88
2021/11/30 00:10:46;;;;;;;7.23;6.63;;;3.10;66.60;;;;;;5032850;28;20884;-88
2021/11/30 00:13:19;;;;;;;6.83;6.23;;;3.10;67.00;;;;;;5032571;28;20431;-88
2021/11/30 00:15:47;;;;;;;7.77;6.20;;;3.20;66.50;;;;;;5033048;28;20431;-87
2021/11/30 00:18:14;;;;;;;6.43;5.83;;;3.10;67.00;;;;;;5032571;28;20423;-88
2021/11/30 00:20:41;;;;;;;5.63;5.23;;;3.00;69.20;;;;;;5032352;28;20434;-89
2021/11/30 00:23:07;;;;;;;6.20;5.60;;;2.80;67.90;;;;;;5032004;28;20979;-88
2021/11/30 00:25:34;;;;;;;6.17;5.67;;;2.90;69.10;;;;;;5033335;28;20425;-87
2021/11/30 00:28:00;;;;;;;7.10;6.20;;;2.90;69.10;;;;;;5033587;28;20545;-87
2021/11/30 00:30:26;;;;;;;6.07;5.57;;;2.90;70.40;;;;;;5032413;28;20930;-88
2021/11/30 00:32:53;;;;;;;6.33;5.73;;;2.90;70.40;;;;;;5031661;28;20420;-88
2021/11/30 00:35:20;;;;;;;6.87;5.73;;;2.70;71.40;;;;;;5032351;28;20184;-87
2021/11/30 00:37:46;;;;;;;6.80;5.40;;;2.60;72.50;;;;;;5032633;28;21019;-87
2021/11/30 00:40:12;;;;;;;5.20;4.80;;;2.70;73.30;;;;;;5032404;28;20529;-87
2021/11/30 00:42:38;;;;;;;8.40;5.97;;;2.60;73.20;;;;;;5032729;28;20296;-88
2021/11/30 00:45:05;;;;;;;5.90;5.50;;;2.70;73.00;;;;;;5034524;28;20270;-87
2021/11/30 00:47:33;;;;;;;6.40;5.90;;;2.70;72.40;;;;;;5043113;28;20411;-88
2021/11/30 00:50:02;;;;;;;6.87;5.77;;;2.70;72.70;;;;;;5048541;28;20415;-87
2021/11/30 00:52:27;;;;;;;6.13;5.67;;;2.70;72.30;;;;;;5040956;28;20491;-87
2021/11/30 00:54:53;;;;;;;5.60;5.20;;;2.80;72.30;;;;;;5032069;28;20872;-84
2021/11/30 00:57:20;;;;;;;6.20;5.70;;;2.70;71.80;;;;;;5031773;28;20180;-88
2021/11/30 00:59:46;;;;;;;6.53;5.80;;;2.70;71.80;;;;;;5031028;28;20419;-88
2021/11/30 01:02:12;;;;;;;5.57;5.13;;;2.80;70.60;;;;;;5031241;28;20423;-88
2021/11/30 01:04:38;;;;;;;5.77;5.37;;;2.70;69.80;;;;;;5032191;28;20177;-88
2021/11/30 01:07:04;;;;;;;5.57;5.10;;;2.80;70.20;;;;;;5031193;28;20180;-88
2021/11/30 01:09:30;;;;;;;6.40;5.80;;;2.80;70.70;;;;;;5031527;28;20177;-87
2021/11/30 01:11:56;;;;;;;5.23;4.83;;;2.90;71.00;;;;;;5030878;28;20418;-89
2021/11/30 01:14:22;;;;;;;5.30;4.47;;;2.90;70.70;;;;;;5031190;28;20303;-87
2021/11/30 01:16:48;;;;;;;4.67;4.30;;;2.90;69.80;;;;;;5030978;28;20941;-88
2021/11/30 01:19:15;;;;;;;5.03;4.63;;;2.80;68.90;;;;;;5031521;28;20781;-88
2021/11/30 01:21:41;;;;;;;5.00;4.60;;;2.90;69.70;;;;;;5030718;28;20415;-88
2021/11/30 01:24:08;;;;;;;4.90;4.50;;;2.90;68.20;;;;;;5031842;28;20469;-87
2021/11/30 01:26:36;;;;;;;5.15;4.75;;;2.90;67.70;;;;;;5030678;28;20442;-88
2021/11/30 01:29:02;;;;;;;5.67;5.13;;;3.00;66.80;;;;;;5031103;28;20177;-89
2021/11/30 01:31:28;;;;;;;4.93;4.53;;;3.00;68.40;;;;;;5030809;28;20538;-88
2021/11/30 01:33:54;;;;;;;6.40;5.60;;;3.00;67.40;;;;;;5031737;28;20502;-88
2021/11/30 01:36:19;;;;;;;5.40;4.93;;;3.00;66.30;;;;;;5033437;28;20410;-88
2021/11/30 01:38:45;;;;;;;5.17;4.87;;;2.90;68.00;;;;;;5030839;28;20177;-88
2021/11/30 01:41:13;;;;;;;5.03;4.63;;;2.90;65.80;;;;;;5031230;28;20180;-88
2021/11/30 01:43:43;;;;;;;5.93;4.97;;;2.90;66.80;;;;;;5030631;28;20208;-87
2021/11/30 01:51:28;;;;;;;4.60;4.20;;;2.90;66.70;;;;;;5032324;28;20454;-88
2021/11/30 01:53:55;;;;;;;5.30;4.63;;;3.00;66.60;;;;;;5030773;28;20419;-88
2021/11/30 01:56:21;;;;;;;5.03;4.53;;;3.00;68.10;;;;;;5031824;28;20435;-86
2021/11/30 01:58:48;;;;;;;5.90;4.57;;;3.00;67.40;;;;;;5030183;28;20517;-86
2021/11/30 02:01:14;;;;;;;4.43;3.80;;;3.00;66.70;;;;;;5029798;28;20498;-89
2021/11/30 02:03:40;;;;;;;4.27;3.97;;;3.00;65.90;;;;;;5030261;28;20465;-88
2021/11/30 02:06:06;;;;;;;6.17;4.10;;;3.00;66.20;;;;;;5030892;28;20457;-88
2021/11/30 02:08:32;;;;;;;4.93;4.50;;;3.00;65.80;;;;;;5031080;28;20422;-88
2021/11/30 02:10:58;;;;;;;4.13;3.80;;;3.00;65.40;;;;;;5031328;28;20418;-89
2021/11/30 02:13:25;;;;;;;4.10;3.70;;;3.00;63.70;;;;;;5030520;28;20218;-86
2021/11/30 02:15:54;;;;;;;4.77;4.20;;;3.00;64.60;;;;;;5030522;28;20418;-87
2021/11/30 02:18:23;;;;;;;5.07;4.70;;;3.00;65.60;;;;;;5030770;28;20426;-87
2021/11/30 02:20:55;;;;;;;4.82;4.32;;;3.10;64.10;;;;;;5029531;28;20421;-86
2021/11/30 02:23:34;;;;;;;4.13;3.67;;;3.10;64.40;;;;;;5030640;28;20212;-86
2021/11/30 02:26:05;;;;;;;3.57;2.93;;;3.10;63.50;;;;;;5030214;28;20411;-86
2021/11/30 02:28:30;;;;;;;5.13;3.80;;;3.00;62.40;;;;;;5030162;28;20429;-87
2021/11/30 02:30:56;;;;;;;4.07;3.40;;;3.00;63.10;;;;;;5029896;28;20411;-87
2021/11/30 02:33:22;;;;;;;3.93;3.73;;;3.10;62.70;;;;;;5030068;28;20518;-87
2021/11/30 02:35:48;;;;;;;5.37;4.03;;;3.10;62.30;;;;;;5030181;28;20191;-87
2021/11/30 02:38:13;;;;;;;4.43;3.80;;;3.10;63.20;;;;;;5029415;28;20333;-86
2021/11/30 02:40:39;;;;;;;3.00;2.80;;;3.00;63.10;;;;;;5046166;28;20553;-87
2021/11/30 02:43:05;;;;;;;4.73;3.20;;;3.10;63.20;;;;;;5029148;28;20287;-88
2021/11/30 02:45:31;;;;;;;3.20;2.90;;;3.00;61.80;;;;;;5029706;28;20176;-88
2021/11/30 02:47:57;;;;;;;3.47;3.17;;;3.10;64.30;;;;;;5029748;28;20483;-88
2021/11/30 02:50:25;;;;;;;3.80;3.50;;;3.00;64.00;;;;;;5030061;28;20443;-88
2021/11/30 02:52:51;;;;;;;2.90;2.70;;;3.00;62.70;;;;;;5030107;28;20434;-88
2021/11/30 02:55:17;;;;;;;3.07;2.77;;;3.00;62.90;;;;;;5029052;28;20908;-87
2021/11/30 02:57:42;;;;;;;3.77;3.13;;;3.00;61.90;;;;;;5028396;28;20230;-87
2021/11/30 03:00:09;;;;;;;3.40;2.90;;;3.00;63.40;;;;;;5028881;28;20181;-86
2021/11/30 03:02:37;;;;;;;3.40;2.50;;;3.00;62.80;;;;;;5028585;28;20231;-87
2021/11/30 03:05:04;;;;;;;4.70;3.20;;;3.00;62.90;;;;;;5028402;28;20415;-87
2021/11/30 03:07:38;;;;;;;3.00;2.80;;;3.00;63.00;;;;;;5028592;28;20423;-86
2021/11/30 03:10:16;;;;;;;3.20;3.00;;;3.00;63.10;;;;;;5029001;28;20419;-87
2021/11/30 03:12:43;;;;;;;3.93;3.00;;;3.00;62.60;;;;;;5029204;28;20793;-87
2021/11/30 03:15:10;;;;;;;5.13;2.63;;;2.90;63.40;;;;;;5028364;28;20426;-87
2021/11/30 03:17:36;;;;;;;3.70;3.03;;;2.90;61.70;;;;;;5029932;28;20506;-86
2021/11/30 03:20:04;;;;;;;3.77;2.80;;;2.90;63.20;;;;;;5028973;28;20944;-86
2021/11/30 03:22:29;;;;;;;2.33;2.20;;;2.90;61.00;;;;;;5028282;28;20463;-86
2021/11/30 03:24:55;;;;;;;5.10;2.27;;;2.90;60.70;;;;;;5028238;28;20420;-87
2021/11/30 03:27:21;;;;;;;2.70;2.50;;;2.90;60.70;;;;;;5028173;28;20204;-87
2021/11/30 03:29:47;;;;;;;3.77;2.30;;;2.90;61.10;;;;;;5028996;28;20306;-87
2021/11/30 03:33:58;;;;;;;2.90;2.70;;;2.80;60.60;;;;;;5032203;28;20191;-87
2021/11/30 03:34:58;;;;;;;6.03;3.20;;;2.80;60.60;;;;;;5033122;28;20426;-87
2021/11/30 03:37:24;;;;;;;3.20;3.00;;;2.80;61.00;;;;;;5033116;28;20416;-87
2021/11/30 03:39:51;;;;;;;2.90;2.70;;;2.80;59.70;;;;;;5031979;28;20937;-87
2021/11/30 03:42:18;;;;;;;2.73;2.40;;;2.90;60.60;;;;;;5032207;28;20176;-87
2021/11/30 03:44:46;;;;;;;3.37;3.17;;;2.90;60.50;;;;;;5031917;28;20411;-88
2021/11/30 03:47:12;;;;;;;2.87;2.67;;;2.90;59.20;;;;;;5032111;28;20785;-87
2021/11/30 03:49:38;;;;;;;6.43;2.90;;;3.00;59.50;;;;;;5032423;28;20415;-86
2021/11/30 03:52:04;;;;;;;2.70;2.50;;;3.00;59.70;;;;;;5032895;28;20419;-86
2021/11/30 03:54:30;;;;;;;3.03;2.83;;;3.00;59.90;;;;;;5032054;28;20191;-87
2021/11/30 03:56:56;;;;;;;3.50;3.00;;;3.00;60.10;;;;;;5031905;28;20835;-86
2021/11/30 03:59:22;;;;;;;2.40;2.30;;;2.90;58.80;;;;;;5032123;28;20514;-87
2021/11/30 04:01:48;;;;;;;4.73;2.93;;;2.90;59.80;;;;;;5031567;28;20267;-86
2021/11/30 04:04:20;;;;;;;4.87;2.93;;;3.00;59.20;;;;;;5031043;28;20461;-86
2021/11/30 04:06:48;;;;;;;3.10;2.80;;;3.00;58.30;;;;;;5031468;28;20462;-87
2021/11/30 04:09:14;;;;;;;3.80;3.30;;;3.00;59.30;;;;;;5032423;28;20921;-88
2021/11/30 04:11:40;;;;;;;4.17;3.07;;;3.00;59.40;;;;;;5031298;28;20660;-86
2021/11/30 04:14:06;;;;;;;3.40;2.60;;;3.00;58.20;;;;;;5030993;28;20454;-87
2021/11/30 04:16:32;;;;;;;3.80;3.50;;;3.00;59.00;;;;;;5030987;28;20502;-86
2021/11/30 04:18:58;;;;;;;2.70;2.50;;;3.00;58.50;;;;;;5030630;28;20466;-88
2021/11/30 04:21:24;;;;;;;4.47;3.10;;;2.90;57.80;;;;;;5030410;28;20703;-87
2021/11/30 04:23:51;;;;;;;3.23;2.93;;;3.00;58.30;;;;;;5030262;28;20506;-87
2021/11/30 04:26:17;;;;;;;3.40;2.80;;;2.90;58.00;;;;;;5030174;28;20443;-87
2021/11/30 04:28:44;;;;;;;2.77;2.53;;;2.90;57.00;;;;;;5018762;28;20424;-87
2021/11/30 04:33:54;;;;;;;3.60;2.90;;;2.90;58.50;;;;;;5032076;28;20441;-86
2021/11/30 04:36:19;;;;;;;5.20;2.70;;;2.90;58.10;;;;;;5030803;28;20423;-86
2021/11/30 04:38:45;;;;;;;3.53;2.83;;;2.90;58.40;;;;;;5032618;28;20187;-85
2021/11/30 04:41:11;;;;;;;3.20;2.90;;;2.90;58.10;;;;;;5031386;28;20188;-88
2021/11/30 04:43:37;;;;;;;5.30;3.37;;;2.90;58.70;;;;;;5030780;28;20462;-86
2021/11/30 04:46:18;;;;;;;4.63;4.20;;;2.80;58.30;;;;;;5048228;28;20188;-88
2021/11/30 04:48:53;;;;;;;5.67;3.60;;;2.80;58.30;;;;;;5031216;28;20177;-88
2021/11/30 04:51:19;;;;;;;3.33;3.07;;;2.80;58.80;;;;;;5031266;28;20415;-86
2021/11/30 04:53:46;;;;;;;3.77;3.30;;;2.80;58.30;;;;;;5030232;28;20477;-88
2021/11/30 04:56:16;;;;;;;4.00;2.60;;;2.80;57.80;;;;;;5031042;28;20777;-87
2021/11/30 04:59:01;;;;;;;4.25;3.65;;;2.80;57.40;;;;;;5029858;28;20815;-84
2021/11/30 05:01:27;;;;;;;3.93;3.63;;;2.80;58.50;;;;;;5030102;28;20621;-85
2021/11/30 05:03:53;;;;;;;3.30;3.00;;;2.70;57.40;;;;;;5030355;28;20509;-85
2021/11/30 05:06:18;;;;;;;3.43;3.23;;;2.70;58.80;;;;;;5029839;28;20531;-83
2021/11/30 05:08:44;;;;;;;3.47;3.10;;;2.70;58.50;;;;;;5029849;28;20214;-82
2021/11/30 05:11:10;;;;;;;3.50;3.20;;;2.70;58.40;;;;;;5029294;28;20632;-82
2021/11/30 05:13:36;;;;;;;3.97;3.63;;;2.70;58.60;;;;;;5029144;28;20176;-83
2021/11/30 05:16:01;;;;;;;3.50;3.30;;;2.70;59.40;;;;;;5029449;28;20433;-83
2021/11/30 05:18:27;;;;;;;4.50;2.80;;;2.70;59.00;;;;;;5030166;28;20226;-86
2021/11/30 05:20:54;;;;;;;3.70;3.40;;;2.60;59.40;;;;;;5029871;28;20180;-83
2021/11/30 05:23:30;;;;;;;3.50;3.30;;;2.70;61.00;;;;;;5030576;28;20204;-85
2021/11/30 05:25:59;;;;;;;4.57;3.83;;;2.60;59.90;;;;;;5030235;28;20409;-85
2021/11/30 05:28:26;;;;;;;4.83;3.37;;;2.60;61.60;;;;;;5030369;28;20196;-84
2021/11/30 05:30:52;;;;;;;3.30;3.00;;;2.60;62.00;;;;;;5029645;28;20412;-85
2021/11/30 05:33:18;;;;;;;6.23;4.70;;;2.60;63.70;;;;;;5030158;28;20485;-86
2021/11/30 05:35:44;;;;;;;3.77;3.57;;;2.50;62.40;;;;;;5029835;28;20245;-84
2021/11/30 05:38:09;;;;;;;4.07;3.77;;;2.40;63.60;;;;;;5029594;28;20418;-84
2021/11/30 05:40:35;;;;;;;5.00;3.77;;;2.40;62.00;;;;;;5032340;28;20181;-87
2021/11/30 05:43:01;;;;;;;3.10;2.90;;;2.40;64.50;;;;;;5031351;28;20248;-87
2021/11/30 05:45:26;;;;;;;5.03;4.00;;;2.40;63.30;;;;;;5032091;28;20169;-86
2021/11/30 05:47:52;;;;;;;5.37;4.10;;;2.40;62.60;;;;;;5031957;28;20176;-88
2021/11/30 05:50:18;;;;;;;4.47;4.10;;;2.40;63.30;;;;;;5026301;28;20415;-88
2021/11/30 05:52:46;;;;;;;5.83;3.93;;;2.30;64.30;;;;;;5046626;28;20820;-87
2021/11/30 05:55:12;;;;;;;4.57;4.28;;;2.30;64.70;;;;;;5047546;28;20494;-85
2021/11/30 05:57:38;;;;;;;4.70;4.20;;;2.30;64.10;;;;;;5029757;28;20271;-85
2021/11/30 06:00:06;;;;;;;4.73;4.33;;;2.40;65.00;;;;;;5046386;28;20423;-86
2021/11/30 06:02:39;;;;;;;4.57;4.17;;;2.40;63.90;;;;;;5046596;28;20546;-85
2021/11/30 06:05:05;;;;;;;5.00;4.50;;;2.40;64.10;;;;;;5022848;28;20498;-85
2021/11/30 06:07:31;;;;;;;4.70;4.40;;;2.40;64.40;;;;;;5030058;28;20598;-85
2021/11/30 06:09:56;;;;;;;5.53;5.00;;;2.40;63.10;;;;;;5030706;28;20509;-85
2021/11/30 06:12:22;;;;;;;4.57;4.27;;;2.40;64.00;;;;;;5030521;28;20184;-86
2021/11/30 06:14:48;;;;;;;4.73;4.40;;;2.40;64.00;;;;;;5030788;28;20176;-85
2021/11/30 06:17:14;;;;;;;5.93;5.20;;;2.40;63.20;;;;;;5029925;28;20245;-85
2021/11/30 06:19:40;;;;;;;4.82;4.43;;;2.40;63.40;;;;;;5030418;28;20187;-86
2021/11/30 06:22:08;;;;;;;7.23;4.30;;;2.30;64.50;;;;;;5030197;28;20514;-85
2021/11/30 06:24:33;;;;;;;5.90;5.50;;;2.30;65.20;;;;;;5030393;28;20430;-85
2021/11/30 06:26:59;;;;;;;5.90;5.50;;;2.20;65.40;;;;;;5030635;28;20172;-85
2021/11/30 06:29:25;;;;;;;5.57;5.07;;;2.00;66.70;;;;;;5030402;28;20415;-85
2021/11/30 06:31:51;;;;;;;5.17;4.77;;;2.00;68.80;;;;;;5030717;28;20183;-85
2021/11/30 06:34:16;;;;;;;6.00;5.60;;;2.00;68.90;;;;;;5030774;28;20185;-85
2021/11/30 06:36:42;;;;;;;5.50;5.03;;;2.00;69.50;;;;;;5030640;28;20180;-86
2021/11/30 06:39:08;;;;;;;7.43;5.30;;;2.00;69.40;;;;;;5030956;28;20187;-85
2021/11/30 06:41:34;;;;;;;9.67;5.93;;;2.00;71.00;;;;;;5030524;28;20645;-85
2021/11/30 06:43:59;;;;;;;6.47;5.97;;;1.90;69.80;;;;;;5031248;28;20197;-85
2021/11/30 06:46:25;;;;;;;5.40;5.00;;;1.90;71.10;;;;;;5031192;28;20169;-85
2021/11/30 06:48:51;;;;;;;6.28;5.68;;;1.90;70.50;;;;;;5031649;28;20781;-85
2021/11/30 06:51:19;;;;;;;5.83;5.33;;;1.90;71.10;;;;;;5031087;28;20169;-85
2021/11/30 06:53:44;;;;;;;6.47;5.53;;;1.90;71.20;;;;;;5031327;28;20177;-84
2021/11/30 06:56:10;;;;;;;6.77;6.17;;;1.90;71.60;;;;;;5031099;28;20311;-84
2021/11/30 06:58:36;;;;;;;6.03;5.53;;;1.90;71.60;;;;;;5030975;28;20185;-84
2021/11/30 07:01:03;;;;;;;6.90;6.20;;;1.90;71.00;;;;;;5030979;28;20711;-86
2021/11/30 07:03:28;;;;;;;5.63;5.23;;;1.90;71.90;;;;;;5030746;28;20196;-84
2021/11/30 07:06:01;;;;;;;5.97;5.47;;;1.90;70.50;;;;;;5033210;28;20419;-84
2021/11/30 07:13:57;;;;;;;6.15;5.60;;;2.00;71.90;;;;;;5025676;28;20527;-84
2021/11/30 07:16:23;;;;;;;5.93;5.40;;;2.10;71.10;;;;;;5031797;28;20231;-84
2021/11/30 07:18:49;;;;;;;5.00;4.60;;;2.10;71.00;;;;;;5031931;28;20200;-84
2021/11/30 07:21:14;;;;;;;4.70;4.40;;;2.10;70.10;;;;;;5031659;28;20264;-85
2021/11/30 07:23:40;;;;;;;4.73;4.33;;;2.10;68.30;;;;;;5030977;28;20220;-85
2021/11/30 07:26:05;;;;;;;4.83;4.47;;;2.10;68.60;;;;;;5031382;28;20186;-84
2021/11/30 07:28:32;;;;;;;4.20;3.90;;;2.10;67.80;;;;;;5031743;28;20232;-84
2021/11/30 07:31:04;;;;;;;8.20;7.40;;;2.10;65.90;;;;;;5030554;28;20180;-85
2021/11/30 07:33:32;;;;;;;5.03;4.35;;;2.10;66.50;;;;;;5033652;28;20192;-84
2021/11/30 07:35:59;;;;;;;5.30;4.10;;;2.20;66.70;;;;;;5034032;28;20188;-85
2021/11/30 07:38:25;;;;;;;4.32;4.03;;;2.20;65.10;;;;;;5034678;28;20188;-86
2021/11/30 07:40:50;;;;;;;4.67;4.30;;;2.20;65.20;;;;;;5034269;28;20176;-85
2021/11/30 07:43:16;;;;;;;3.90;3.60;;;2.20;65.80;;;;;;5035016;28;20292;-85
2021/11/30 07:45:43;;;;;;;4.00;3.70;;;2.20;65.70;;;;;;5034149;28;20180;-85
2021/11/30 07:48:09;;;;;;;4.00;3.50;;;2.20;65.20;;;;;;5034271;28;20645;-85
2021/11/30 07:50:35;;;;;;;4.10;3.70;;;2.20;63.90;;;;;;5033517;28;20419;-85
2021/11/30 07:53:01;;;;;;;3.57;3.10;;;2.20;65.20;;;;;;5033936;28;20190;-85
2021/11/30 07:55:26;;;;;;;4.13;3.43;;;2.20;65.20;;;;;;5034280;28;20681;-84
2021/11/30 07:57:53;;;;;;;3.40;3.13;;;2.20;66.00;;;;;;5034303;28;20180;-85
2021/11/30 08:00:19;;;;;;;4.30;3.60;;;2.20;63.10;;;;;;5034076;28;20176;-84
2021/11/30 08:02:46;;;;;;;3.60;3.30;;;2.20;63.30;;;;;;5034441;28;20265;-84
2021/11/30 08:05:13;;;;;;;5.35;3.05;;;2.30;64.10;;;;;;5033890;28;20404;-83
2021/11/30 08:07:39;;;;;;;4.63;4.28;;;2.30;63.30;;;;;;5035424;28;20169;-83
2021/11/30 08:10:09;;;;;;;3.83;3.40;;;2.30;62.00;;;;;;5033346;28;20179;-83
2021/11/30 08:12:35;;;;;;;3.33;3.13;;;2.30;63.30;;;;;;5033402;28;20204;-84
2021/11/30 08:15:01;;;;;;;2.72;2.53;;;2.30;63.60;;;;;;5033640;28;20184;-83
2021/11/30 08:17:27;;;;;;;3.13;2.83;;;2.30;63.60;;;;;;5033114;28;20183;-83
2021/11/30 08:19:52;;;;;;;3.87;3.57;;;2.30;63.20;;;;;;5032960;28;20176;-83
2021/11/30 08:22:18;;;;;;;3.40;3.20;;;2.30;62.60;;;;;;5033163;28;20660;-81
2021/11/30 08:24:44;;;;;;;3.27;2.97;;;2.30;63.60;;;;;;5033090;28;20676;-84
2021/11/30 08:27:11;;;;;;;3.23;3.03;;;2.30;63.00;;;;;;5033509;28;20183;-84
2021/11/30 08:29:39;;;;;;;4.70;3.65;;;2.20;63.10;;;;;;5033113;28;20410;-84
2021/11/30 08:32:07;;;;;;;3.35;3.15;;;2.20;64.30;;;;;;5033284;28;20175;-83
2021/11/30 08:34:33;;;;;;;3.67;3.00;;;2.20;63.50;;;;;;5033063;28;20180;-83
2021/11/30 08:36:58;;;;;;;3.00;2.80;;;2.30;64.30;;;;;;5032691;28;20183;-84
2021/11/30 08:39:25;;;;;;;3.13;2.87;;;2.30;63.60;;;;;;5033378;28;20549;-84
2021/11/30 08:41:51;;;;;;;3.88;3.17;;;2.40;62.90;;;;;;5032350;28;20600;-84
2021/11/30 08:44:16;;;;;;;3.23;2.93;;;2.40;61.30;;;;;;5034382;28;20236;-83
2021/11/30 08:46:42;;;;;;;3.50;2.63;;;2.40;61.40;;;;;;5033193;28;20923;-84
2021/11/30 08:49:08;;;;;;;3.20;3.00;;;2.50;61.70;;;;;;5032632;28;20647;-84
2021/11/30 08:51:33;;;;;;;3.67;3.40;;;2.50;61.00;;;;;;5032874;28;20230;-85
2021/11/30 08:54:00;;;;;;;3.63;2.87;;;2.50;61.20;;;;;;5033178;28;20183;-85
2021/11/30 08:56:26;;;;;;;2.95;2.75;;;2.50;60.80;;;;;;5033435;28;20181;-84
2021/11/30 08:58:52;;;;;;;3.00;2.63;;;2.60;60.10;;;;;;5032888;28;20682;-85
2021/11/30 09:01:20;;;;;;;2.90;2.70;;;2.60;60.40;;;;;;5032788;28;20173;-84
2021/11/30 09:03:46;;;;;;;3.05;2.75;;;2.60;60.00;;;;;;5032244;28;20208;-85
2021/11/30 09:06:12;;;;;;;3.10;2.90;;;2.70;58.70;;;;;;5033209;28;20330;-85
2021/11/30 09:08:37;;;;;;;2.67;2.47;;;2.80;61.40;;;;;;5033317;28;20422;-86
2021/11/30 09:11:03;;;;;;;3.23;2.93;;;2.70;60.50;;;;;;5033176;28;20227;-86
2021/11/30 09:13:29;;;;;;;2.73;2.53;;;2.70;59.80;;;;;;5032951;28;20660;-85
2021/11/30 09:15:54;;;;;;;3.03;2.83;;;2.70;60.10;;;;;;5032638;28;20434;-86
2021/11/30 09:18:20;;;;;;;2.90;2.70;;;2.80;59.30;;;;;;5033196;28;20216;-85
2021/11/30 09:20:46;;;;;;;3.20;3.00;;;2.80;59.90;;;;;;5034493;28;20275;-87
2021/11/30 09:23:12;;;;;;;3.40;3.20;;;2.80;59.90;;;;;;5033608;28;20223;-90
2021/11/30 09:25:38;;;;;;;3.93;2.97;;;2.80;60.20;;;;;;5033327;28;20933;-87
2021/11/30 09:28:04;;;;;;;3.93;2.67;;;2.90;61.60;;;;;;5033180;28;20180;-84
2021/11/30 09:30:34;;;;;;;2.33;2.10;;;2.80;60.40;;;;;;5033797;28;20419;-85
2021/11/30 09:33:00;;;;;;;2.20;2.10;;;2.80;60.00;;;;;;5033315;28;20203;-85
2021/11/30 09:35:26;;;;;;;2.70;2.50;;;2.90;59.70;;;;;;5032368;28;20176;-84
2021/11/30 09:37:54;;;;;;;2.60;2.50;;;2.90;60.20;;;;;;5032675;28;20412;-83
2021/11/30 09:40:23;;;;;;;2.20;2.10;;;2.90;60.20;;;;;;5031791;28;20188;-84
2021/11/30 09:42:50;;;;;;;2.10;2.00;;;3.00;60.00;;;;;;5032148;28;20455;-84
2021/11/30 09:45:17;;;;;;;2.20;2.10;;;3.00;59.50;;;;;;5032008;28;20231;-84
2021/11/30 09:47:47;;;;;;;2.40;2.30;;;3.00;59.90;;;;;;5032133;28;20219;-84
2021/11/30 09:50:16;;;;;;;2.55;2.35;;;3.00;60.00;;;;;;5031616;28;20423;-84
2021/11/30 09:52:42;;;;;;;2.25;2.15;;;3.00;60.90;;;;;;5031463;28;20186;-83
2021/11/30 09:55:11;;;;;;;2.42;2.13;;;3.00;60.10;;;;;;5031145;28;20222;-84
2021/11/30 09:57:37;;;;;;;3.40;2.20;;;3.10;60.40;;;;;;5031190;28;20214;-84
2021/11/30 10:00:05;;;;;;;2.00;1.90;;;3.10;60.30;;;;;;5030971;28;20962;-85
2021/11/30 10:02:30;;;;;;;3.03;2.00;;;3.10;60.60;;;;;;5030253;28;20856;-83
2021/11/30 10:04:56;;;;;;;2.30;2.10;;;3.10;60.80;;;;;;5031322;28;20264;-82
2021/11/30 10:07:44;;;;;;;2.90;1.80;;;3.10;60.30;;;;;;5031496;28;20203;-82
2021/11/30 10:10:33;;;;;;;1.80;1.70;;;3.10;60.90;;;;;;5030901;28;20664;-85
2021/11/30 10:13:05;;;;;;;1.70;1.60;;;3.10;59.40;;;;;;5031206;28;20269;-85
2021/11/30 10:15:47;;;;;;;7.00;1.90;;;3.20;59.50;;;;;;5027518;28;20432;-84
2021/11/30 10:18:40;;;;;;;2.00;1.60;;;3.20;60.60;;;;;;5012761;28;20784;-85
2021/11/30 10:21:09;;;;;;;2.75;2.28;;;3.30;60.50;;;;;;5026935;28;20767;-84
2021/11/30 10:23:46;;;;;;;2.27;1.57;;;3.30;60.80;;;;;;5033839;28;20204;-84
2021/11/30 10:26:12;;;;;;;3.23;2.07;;;3.30;59.60;;;;;;5045276;28;20430;-84
2021/11/30 10:28:38;;;;;;;1.53;1.43;;;3.30;60.80;;;;;;5047396;28;20423;-85
2021/11/30 10:31:09;;;;;;;1.30;1.20;;;3.30;59.80;;;;;;5033067;28;20454;-88
2021/11/30 10:33:35;;;;;;;1.70;1.60;;;3.30;61.00;;;;;;5032342;28;20482;-86
2021/11/30 10:36:03;;;;;;;1.50;1.40;;;3.20;61.00;;;;;;5031700;28;20271;-85
2021/11/30 10:38:40;;;;;;;1.90;1.63;;;3.20;60.80;;;;;;5031590;28;20419;-88
2021/11/30 10:41:16;;;;;;;1.42;1.38;;;3.20;61.00;;;;;;5035633;28;20422;-86
2021/11/30 10:43:57;;;;;;;3.03;1.40;;;3.20;62.00;;;;;;5035552;28;20196;-87
2021/11/30 10:46:33;;;;;;;1.10;1.10;;;3.30;61.70;;;;;;5035487;28;20775;-89
2021/11/30 10:48:59;;;;;;;1.40;1.37;;;3.20;63.20;;;;;;5035302;28;20472;-85
2021/11/30 10:51:30;;;;;;;1.43;1.30;;;3.20;62.50;;;;;;5035393;28;20419;-85
2021/11/30 10:54:00;;;;;;;1.47;1.37;;;3.10;63.90;;;;;;5035040;28;20176;-87
2021/11/30 10:56:27;;;;;;;1.73;1.63;;;3.10;65.40;;;;;;5035348;28;20454;-86
2021/11/30 10:58:54;;;;;;;1.40;1.30;;;3.10;65.00;;;;;;5035065;28;20414;-87
2021/11/30 11:01:23;;;;;;;1.35;1.25;;;3.10;65.80;;;;;;5034468;28;20771;-86
2021/11/30 11:04:12;;;;;;;1.15;1.15;;;3.10;66.00;;;;;;5034620;28;20211;-87
2021/11/30 11:06:38;;;;;;;1.10;1.00;;;3.10;64.70;;;;;;5034514;28;20169;-85
2021/11/30 11:09:11;;;;;;;1.60;1.30;;;3.10;64.70;;;;;;5033345;28;20454;-82
2021/11/30 11:11:44;;;;;;;2.88;1.00;;;3.20;64.00;;;;;;5034670;28;20211;-86
2021/11/30 11:14:20;;;;;;;1.15;0.98;;;3.20;62.90;;;;;;5034975;28;20181;-86
2021/11/30 11:16:51;;;;;;;1.30;1.15;;;3.30;63.00;;;;;;5034813;28;20176;-85
2021/11/30 11:19:18;;;;;;;1.00;1.00;;;3.30;61.90;;;;;;5034727;28;20545;-85
2021/11/30 11:21:43;;;;;;;1.40;1.30;;;3.30;63.30;;;;;;5031203;28;20509;-85
2021/11/30 11:24:25;;;;;;;1.00;0.90;;;3.40;63.40;;;;;;5034055;28;20911;-83
2021/11/30 11:26:53;;;;;;;1.20;1.03;;;3.40;63.80;;;;;;5050830;28;20307;-83
2021/11/30 11:29:24;;;;;;;1.00;1.00;;;3.40;64.10;;;;;;5035223;28;20791;-83
2021/11/30 11:31:56;;;;;;;0.90;0.90;;;3.40;64.10;;;;;;5050449;28;21004;-82
2021/11/30 11:34:28;;;;;;;0.90;0.90;;;3.40;64.30;;;;;;5050804;28;20581;-83
2021/11/30 11:36:55;;;;;;;0.97;0.93;;;3.50;64.60;;;;;;5050698;28;20411;-84
2021/11/30 11:39:23;;;;;;;1.00;1.00;;;3.50;64.40;;;;;;5050539;28;20815;-84
2021/11/30 11:41:58;;;;;;;1.17;1.00;;;3.50;65.00;;;;;;5046998;28;20756;-83
2021/11/30 11:44:27;;;;;;;3.07;1.07;;;3.50;66.30;;;;;;5050194;28;21127;-85
2021/11/30 11:46:57;;;;;;;1.27;1.20;;;3.60;63.80;;;;;;5033932;28;20419;-84
2021/11/30 11:49:25;;;;;;;1.13;1.00;;;3.50;62.40;;;;;;5033353;28;20938;-84
2021/11/30 11:51:53;;;;;;;1.05;0.95;;;3.60;64.40;;;;;;5032958;28;20442;-84
2021/11/30 11:54:22;;;;;;;1.10;1.00;;;3.60;64.50;;;;;;5033603;28;20184;-84
2021/11/30 11:57:11;;;;;;;1.23;1.13;;;3.50;64.10;;;;;;5033423;28;20421;-84
2021/11/30 11:59:44;;;;;;;1.27;1.13;;;3.70;64.10;;;;;;5034627;28;20411;-85
2021/11/30 12:02:27;;;;;;;1.10;1.00;;;3.70;63.40;;;;;;5033250;28;20423;-85
2021/11/30 12:04:53;;;;;;;1.23;1.10;;;3.70;63.80;;;;;;5033231;28;20426;-83
2021/11/30 12:07:22;;;;;;;0.93;0.93;;;3.70;63.30;;;;;;5033452;28;20411;-84
2021/11/30 12:09:48;;;;;;;1.20;1.10;;;3.70;65.30;;;;;;5032876;28;20173;-84
2021/11/30 12:12:23;;;;;;;2.80;1.30;;;3.60;64.30;;;;;;5033181;28;20777;-84
2021/11/30 12:14:51;;;;;;;3.23;1.10;;;3.60;64.00;;;;;;5027574;28;20785;-84
2021/11/30 12:17:23;;;;;;;1.50;1.40;;;3.70;64.60;;;;;;5032952;28;20426;-83
2021/11/30 12:20:05;;;;;;;1.30;1.20;;;3.70;64.90;;;;;;5032502;28;20431;-88
2021/11/30 12:22:58;;;;;;;1.10;1.00;;;3.70;65.10;;;;;;5050474;28;20460;-84
2021/11/30 12:25:41;;;;;;;1.40;1.30;;;3.70;65.30;;;;;;5049349;28;20426;-84
2021/11/30 12:28:09;;;;;;;1.30;1.20;;;3.70;67.30;;;;;;5049320;28;20419;-83
2021/11/30 12:30:37;;;;;;;1.20;1.10;;;3.70;65.40;;;;;;5049102;28;20412;-86
2021/11/30 12:33:27;;;;;;;1.13;1.03;;;3.70;66.50;;;;;;5049742;28;20942;-86
2021/11/30 12:35:59;;;;;;;1.17;1.07;;;3.70;65.40;;;;;;5029503;28;20481;-85
2021/11/30 12:38:37;;;;;;;1.00;0.90;;;3.70;66.50;;;;;;5049818;28;20411;-84
2021/11/30 12:41:24;;;;;;;1.07;0.93;;;3.70;67.20;;;;;;5049126;28;20431;-85
2021/11/30 12:43:52;;;;;;;1.60;1.20;;;3.60;67.20;;;;;;5049775;28;20466;-85
2021/11/30 12:46:43;;;;;;;2.50;1.37;;;3.60;69.00;;;;;;5049685;28;20407;-84
2021/11/30 12:49:30;;;;;;;1.30;1.20;;;3.60;69.10;;;;;;5027062;28;20427;-85
2021/11/30 12:52:11;;;;;;;1.57;1.30;;;3.70;70.20;;;;;;5049958;28;20419;-86
2021/11/30 12:54:39;;;;;;;1.10;1.00;;;3.70;69.70;;;;;;5049634;28;20430;-86
2021/11/30 12:57:07;;;;;;;1.10;1.00;;;3.70;70.50;;;;;;5049628;28;20447;-87
2021/11/30 12:59:41;;;;;;;1.00;0.90;;;3.70;70.40;;;;;;5050061;28;20800;-85
2021/11/30 13:02:26;;;;;;;0.70;0.70;;;3.70;69.40;;;;;;5049169;28;20434;-88
2021/11/30 13:05:21;;;;;;;1.00;0.90;;;3.70;71.40;;;;;;5033312;28;20432;-87
2021/11/30 13:07:47;;;;;;;0.97;0.90;;;3.70;71.00;;;;;;5032850;28;20420;-88
2021/11/30 13:10:37;;;;;;;0.80;0.70;;;3.60;70.80;;;;;;5032245;28;20445;-88
2021/11/30 13:13:12;;;;;;;1.17;1.10;;;3.60;71.00;;;;;;5033084;28;20177;-87
2021/11/30 13:16:04;;;;;;;2.43;2.23;;;3.60;71.30;;;;;;5032560;28;20411;-88
2021/11/30 13:18:32;;;;;;;1.77;1.07;;;3.60;71.30;;;;;;5032205;28;20427;-88